Details From VDPP - Phnom Penh Intl
To VVTS - TAN SON NHAT INTL
Flight Number -
Tags generated
Created
Modified
Stats Distance 115 nm / 213 km
Max Altitude 9,600 ft / 2,926 m
Waypoints 5
Social Downloads 3
Likes 0
Share VATSIM

Download

Looking for another format? Having issues loading an existing format? Contact us
Advertisement - Login to hide

Notes

Basic altitude profile: - Ascent Rate: 2500ft/min - Ascent Speed: 250kts - Cruise Altitude: 35000ft - Cruise Speed: 420kts - Descent Rate: 1500ft/min - Descent Speed: 250kts Options: - Use NATs: yes - Use PACOTS: yes - Use low airways: yes - Use high airways: yes

Route

VDPP POPET R468 TSN VVTS

ID Type Via Altitude Latitude Longitude Leg Dist Tot Dist Heading (true) Name
O VDPP APT - 0 ft / 0 m 11.54654˚ 104.84414˚ - 0 nm - Phnom Penh Intl
POPET FIX - 9,600 ft / 2,926 m 11.10000˚ 105.95000˚ 70 nm 70 nm 112° / 112° -
SAPEN FIX R468 (AWY-LO) 6,400 ft / 1,951 m 11.02000˚ 106.18333˚ 14 nm 84 nm 109° / 109° -
TSN VOR R468 (AWY-LO) 8,000 ft / 2,438 m 10.81643˚ 106.64558˚ 29 nm 114 nm 114° / 114° TANSONNHAT VOR-DME
O VVTS APT - 0 ft / 0 m 10.81875˚ 106.65173˚ 0 nm 115 nm 69° / 69° TAN SON NHAT INTL

Altitude Profile

Advertisement - Login to hide

VDPP

Details ICAO VDPP (PNH)
Name Phnom Penh Intl
Region Cambodia
Timezone Asia/Phnom_Penh (UTC+7.0)
Stats Elevation 40 ft / 12 m (AMSL)
Location 11.546542° 104.844142°
Runways 1
Magnetic Variation 0.493° W

METAR

VDPP 181600Z 36006KT 330V030 9000 NSC 23/14 Q1015

Decode

TAF

TAF VDPP 181100Z 1812/1906 01006KT 9999 FEW017 SCT040= TAF VDSR 181100Z 1812/1906 02006KT 9999 FEW017 SCT040

Decode

Departure Runways

ID Width Length Bearing (true) Bearing (mag) Surface Threshold Offset Overrun Length
05 144 ft / 44 m 9,815 ft / 2,992 m 45.61° 46.10° Asphalt 400 ft / 122 m 0 ft / 0 m
23 144 ft / 44 m 9,815 ft / 2,992 m 225.61° 226.10° Asphalt 492 ft / 150 m 0 ft / 0 m

VVTS

Details ICAO VVTS (SGN)
Name TAN SON NHAT INTL
Region Vietnam
Timezone Asia/Ho_Chi_Minh (UTC+7.0)
Stats Elevation 33 ft / 10 m (AMSL)
Location 10.818750° 106.651735°
Runways 2
Magnetic Variation 0.488° W

METAR

VVTS 181600Z 01006KT 350V050 9999 FEW017 23/17 Q1013 NOSIG

Decode

TAF

TAF VVTS 181100Z 1812/1918 34007KT 9999 FEW020

Decode

Destination Runways

ID Width Length Bearing (true) Bearing (mag) Surface Threshold Offset Overrun Length
07L 148 ft / 45 m 9,998 ft / 3,047 m 69.00° 69.49° Asphalt 0 ft / 0 m 1,040 ft / 317 m
07R 148 ft / 45 m 12,617 ft / 3,846 m 68.90° 69.39° Concrete 2,543 ft / 775 m 863 ft / 263 m
25L 148 ft / 45 m 12,617 ft / 3,846 m 248.90° 249.39° Concrete 0 ft / 0 m 1,027 ft / 313 m
25R 148 ft / 45 m 9,998 ft / 3,047 m 249.00° 249.49° Asphalt 0 ft / 0 m 1,053 ft / 321 m

Approach Navaids

Runway Type Ident Frequency Range Bearing (true) Bearing (mag) Slope Elevation
25L Localiser SGN 108.30 MHz 18 nm / 33 km 248.96° 249.45° - 24 ft / 7 m (AMSL)
25L Glidescope SGN 108.30 MHz 10 nm / 19 km 248.90° 249.39° 3.00° 49 ft / 15 m (AMSL)
25L DME SGN 108.30 MHz 18 nm / 33 km - - - 33 ft / 10 m (AMSL)
25R Localiser HCM 110.50 MHz 18 nm / 33 km 248.99° 249.48° - 25 ft / 8 m (AMSL)
25R Glidescope HCM 110.50 MHz 10 nm / 19 km 249.00° 249.49° 3.00° 32 ft / 10 m (AMSL)
25R DME HCM 110.50 MHz 18 nm / 33 km - - - 33 ft / 10 m (AMSL)

Popular Alternatives